sensor_id;sensor_type;location;lat;lon;timestamp;P1;durP1;ratioP1;P2;durP2;ratioP2
10550;SDS011;5324;50.684;3.862;2024-03-17T00:00:17;6.10;;;4.13;;
10550;SDS011;5324;50.684;3.862;2024-03-17T00:02:44;5.90;;;4.50;;
10550;SDS011;5324;50.684;3.862;2024-03-17T00:05:10;7.43;;;4.17;;
10550;SDS011;5324;50.684;3.862;2024-03-17T00:07:36;7.47;;;4.60;;
10550;SDS011;5324;50.684;3.862;2024-03-17T00:10:02;5.67;;;4.23;;
10550;SDS011;5324;50.684;3.862;2024-03-17T00:12:29;7.17;;;4.43;;
10550;SDS011;5324;50.684;3.862;2024-03-17T00:14:55;6.67;;;4.00;;
10550;SDS011;5324;50.684;3.862;2024-03-17T00:17:21;5.37;;;4.33;;
10550;SDS011;5324;50.684;3.862;2024-03-17T00:19:48;7.70;;;4.50;;
10550;SDS011;5324;50.684;3.862;2024-03-17T00:22:14;4.90;;;4.23;;
10550;SDS011;5324;50.684;3.862;2024-03-17T00:24:40;5.27;;;4.30;;
10550;SDS011;5324;50.684;3.862;2024-03-17T00:27:06;6.17;;;3.97;;
10550;SDS011;5324;50.684;3.862;2024-03-17T00:29:32;5.07;;;4.30;;
10550;SDS011;5324;50.684;3.862;2024-03-17T00:31:58;5.67;;;4.27;;
10550;SDS011;5324;50.684;3.862;2024-03-17T00:34:24;6.77;;;4.37;;
10550;SDS011;5324;50.684;3.862;2024-03-17T00:36:50;5.20;;;4.30;;
10550;SDS011;5324;50.684;3.862;2024-03-17T00:39:16;5.30;;;4.17;;
10550;SDS011;5324;50.684;3.862;2024-03-17T00:41:45;6.73;;;4.40;;
10550;SDS011;5324;50.684;3.862;2024-03-17T00:44:11;7.97;;;4.80;;
10550;SDS011;5324;50.684;3.862;2024-03-17T00:46:37;5.20;;;4.43;;
10550;SDS011;5324;50.684;3.862;2024-03-17T00:49:05;7.27;;;4.40;;
10550;SDS011;5324;50.684;3.862;2024-03-17T00:51:31;5.30;;;4.57;;
10550;SDS011;5324;50.684;3.862;2024-03-17T00:53:57;4.33;;;3.93;;
10550;SDS011;5324;50.684;3.862;2024-03-17T00:56:23;5.50;;;4.53;;
10550;SDS011;5324;50.684;3.862;2024-03-17T00:58:49;5.10;;;4.33;;
10550;SDS011;5324;50.684;3.862;2024-03-17T01:01:16;5.30;;;4.57;;
10550;SDS011;5324;50.684;3.862;2024-03-17T01:03:44;5.63;;;4.63;;
10550;SDS011;5324;50.684;3.862;2024-03-17T01:06:10;4.67;;;4.17;;
10550;SDS011;5324;50.684;3.862;2024-03-17T01:08:36;6.03;;;4.30;;
10550;SDS011;5324;50.684;3.862;2024-03-17T01:11:02;4.57;;;4.10;;
10550;SDS011;5324;50.684;3.862;2024-03-17T01:13:28;6.57;;;5.17;;
10550;SDS011;5324;50.684;3.862;2024-03-17T01:15:55;6.23;;;4.70;;
10550;SDS011;5324;50.684;3.862;2024-03-17T01:18:21;5.73;;;4.43;;
10550;SDS011;5324;50.684;3.862;2024-03-17T01:20:47;5.20;;;4.17;;
10550;SDS011;5324;50.684;3.862;2024-03-17T01:23:13;5.27;;;4.50;;
10550;SDS011;5324;50.684;3.862;2024-03-17T01:25:39;6.37;;;4.13;;
10550;SDS011;5324;50.684;3.862;2024-03-17T01:28:06;7.43;;;5.03;;
10550;SDS011;5324;50.684;3.862;2024-03-17T01:30:33;6.70;;;4.17;;
10550;SDS011;5324;50.684;3.862;2024-03-17T01:32:59;6.67;;;4.70;;
10550;SDS011;5324;50.684;3.862;2024-03-17T01:35:26;4.77;;;4.30;;
10550;SDS011;5324;50.684;3.862;2024-03-17T01:37:52;5.83;;;4.07;;
10550;SDS011;5324;50.684;3.862;2024-03-17T01:40:18;7.17;;;4.10;;
10550;SDS011;5324;50.684;3.862;2024-03-17T01:42:44;5.40;;;3.87;;
10550;SDS011;5324;50.684;3.862;2024-03-17T01:47:42;4.90;;;4.10;;
10550;SDS011;5324;50.684;3.862;2024-03-17T01:50:08;5.80;;;4.40;;
10550;SDS011;5324;50.684;3.862;2024-03-17T01:52:36;4.93;;;4.43;;
10550;SDS011;5324;50.684;3.862;2024-03-17T01:55:02;5.57;;;4.57;;
10550;SDS011;5324;50.684;3.862;2024-03-17T01:57:29;4.20;;;3.80;;
10550;SDS011;5324;50.684;3.862;2024-03-17T01:59:55;4.90;;;4.40;;
10550;SDS011;5324;50.684;3.862;2024-03-17T02:02:21;5.50;;;4.43;;
10550;SDS011;5324;50.684;3.862;2024-03-17T02:04:47;7.10;;;4.47;;
10550;SDS011;5324;50.684;3.862;2024-03-17T02:07:13;5.20;;;4.40;;
10550;SDS011;5324;50.684;3.862;2024-03-17T02:09:40;5.70;;;4.03;;
10550;SDS011;5324;50.684;3.862;2024-03-17T02:12:08;6.20;;;4.10;;
10550;SDS011;5324;50.684;3.862;2024-03-17T02:14:35;4.87;;;4.47;;
10550;SDS011;5324;50.684;3.862;2024-03-17T02:17:02;5.03;;;4.53;;
10550;SDS011;5324;50.684;3.862;2024-03-17T02:19:29;4.97;;;4.40;;
10550;SDS011;5324;50.684;3.862;2024-03-17T02:21:55;6.90;;;4.07;;
10550;SDS011;5324;50.684;3.862;2024-03-17T02:24:21;6.10;;;4.33;;
10550;SDS011;5324;50.684;3.862;2024-03-17T02:26:47;6.07;;;4.53;;
10550;SDS011;5324;50.684;3.862;2024-03-17T02:29:13;4.67;;;4.27;;
10550;SDS011;5324;50.684;3.862;2024-03-17T02:31:39;6.73;;;4.50;;
10550;SDS011;5324;50.684;3.862;2024-03-17T02:34:05;5.63;;;4.80;;
10550;SDS011;5324;50.684;3.862;2024-03-17T02:36:31;5.30;;;4.40;;
10550;SDS011;5324;50.684;3.862;2024-03-17T02:38:57;6.77;;;4.67;;
10550;SDS011;5324;50.684;3.862;2024-03-17T02:41:42;6.23;;;4.50;;
10550;SDS011;5324;50.684;3.862;2024-03-17T02:44:08;6.57;;;4.43;;
10550;SDS011;5324;50.684;3.862;2024-03-17T02:46:36;6.47;;;4.50;;
10550;SDS011;5324;50.684;3.862;2024-03-17T02:49:03;5.50;;;5.00;;
10550;SDS011;5324;50.684;3.862;2024-03-17T02:51:29;5.63;;;4.47;;
10550;SDS011;5324;50.684;3.862;2024-03-17T02:53:55;4.93;;;4.43;;
10550;SDS011;5324;50.684;3.862;2024-03-17T02:56:24;7.93;;;4.97;;
10550;SDS011;5324;50.684;3.862;2024-03-17T02:58:51;5.30;;;4.73;;
10550;SDS011;5324;50.684;3.862;2024-03-17T03:01:17;6.17;;;4.80;;
10550;SDS011;5324;50.684;3.862;2024-03-17T03:03:44;5.73;;;4.50;;
10550;SDS011;5324;50.684;3.862;2024-03-17T03:06:10;6.23;;;4.80;;
10550;SDS011;5324;50.684;3.862;2024-03-17T03:08:37;6.27;;;4.53;;
10550;SDS011;5324;50.684;3.862;2024-03-17T03:11:05;5.13;;;4.50;;
10550;SDS011;5324;50.684;3.862;2024-03-17T03:13:31;6.33;;;4.83;;
10550;SDS011;5324;50.684;3.862;2024-03-17T03:15:57;7.10;;;5.00;;
10550;SDS011;5324;50.684;3.862;2024-03-17T03:18:23;8.07;;;5.07;;
10550;SDS011;5324;50.684;3.862;2024-03-17T03:20:50;4.83;;;4.40;;
10550;SDS011;5324;50.684;3.862;2024-03-17T03:23:19;6.17;;;4.53;;
10550;SDS011;5324;50.684;3.862;2024-03-17T03:25:46;6.77;;;4.23;;
10550;SDS011;5324;50.684;3.862;2024-03-17T03:28:13;7.80;;;5.00;;
10550;SDS011;5324;50.684;3.862;2024-03-17T03:30:39;7.80;;;3.93;;
10550;SDS011;5324;50.684;3.862;2024-03-17T03:33:05;6.00;;;4.20;;
10550;SDS011;5324;50.684;3.862;2024-03-17T03:35:32;7.87;;;4.70;;
10550;SDS011;5324;50.684;3.862;2024-03-17T03:37:58;6.60;;;4.30;;
10550;SDS011;5324;50.684;3.862;2024-03-17T03:40:26;8.57;;;4.83;;
10550;SDS011;5324;50.684;3.862;2024-03-17T03:42:52;6.40;;;4.53;;
10550;SDS011;5324;50.684;3.862;2024-03-17T03:45:18;7.47;;;5.10;;
10550;SDS011;5324;50.684;3.862;2024-03-17T03:47:45;6.27;;;5.03;;
10550;SDS011;5324;50.684;3.862;2024-03-17T03:50:12;9.27;;;5.30;;
10550;SDS011;5324;50.684;3.862;2024-03-17T03:52:38;8.47;;;5.07;;
10550;SDS011;5324;50.684;3.862;2024-03-17T03:55:08;9.87;;;5.00;;
10550;SDS011;5324;50.684;3.862;2024-03-17T03:57:44;9.87;;;6.27;;
10550;SDS011;5324;50.684;3.862;2024-03-17T04:00:12;9.60;;;6.23;;
10550;SDS011;5324;50.684;3.862;2024-03-17T04:02:39;8.50;;;5.90;;
10550;SDS011;5324;50.684;3.862;2024-03-17T04:05:05;11.93;;;6.70;;
10550;SDS011;5324;50.684;3.862;2024-03-17T04:07:31;10.03;;;6.50;;
10550;SDS011;5324;50.684;3.862;2024-03-17T04:09:57;9.37;;;5.83;;
10550;SDS011;5324;50.684;3.862;2024-03-17T04:12:24;9.83;;;5.63;;
10550;SDS011;5324;50.684;3.862;2024-03-17T04:14:51;12.40;;;5.90;;
10550;SDS011;5324;50.684;3.862;2024-03-17T04:17:20;9.33;;;5.70;;
10550;SDS011;5324;50.684;3.862;2024-03-17T04:19:50;9.33;;;5.87;;
10550;SDS011;5324;50.684;3.862;2024-03-17T04:22:16;12.43;;;6.50;;
10550;SDS011;5324;50.684;3.862;2024-03-17T04:24:43;14.20;;;7.17;;
10550;SDS011;5324;50.684;3.862;2024-03-17T04:27:09;12.07;;;7.13;;
10550;SDS011;5324;50.684;3.862;2024-03-17T04:29:35;12.67;;;6.70;;
10550;SDS011;5324;50.684;3.862;2024-03-17T04:32:01;11.33;;;6.80;;
10550;SDS011;5324;50.684;3.862;2024-03-17T04:34:27;10.80;;;7.00;;
10550;SDS011;5324;50.684;3.862;2024-03-17T04:36:53;13.60;;;7.40;;
10550;SDS011;5324;50.684;3.862;2024-03-17T04:39:19;16.60;;;8.67;;
10550;SDS011;5324;50.684;3.862;2024-03-17T04:41:47;18.43;;;8.40;;
10550;SDS011;5324;50.684;3.862;2024-03-17T04:44:13;14.10;;;7.90;;
10550;SDS011;5324;50.684;3.862;2024-03-17T04:46:39;13.87;;;7.73;;
10550;SDS011;5324;50.684;3.862;2024-03-17T04:49:05;13.60;;;7.10;;
10550;SDS011;5324;50.684;3.862;2024-03-17T04:51:31;15.97;;;8.03;;
10550;SDS011;5324;50.684;3.862;2024-03-17T04:53:58;12.50;;;7.50;;
10550;SDS011;5324;50.684;3.862;2024-03-17T04:56:24;13.40;;;6.77;;
10550;SDS011;5324;50.684;3.862;2024-03-17T04:58:50;10.50;;;6.37;;
10550;SDS011;5324;50.684;3.862;2024-03-17T05:01:16;8.60;;;6.10;;
10550;SDS011;5324;50.684;3.862;2024-03-17T05:03:42;12.03;;;6.27;;
10550;SDS011;5324;50.684;3.862;2024-03-17T05:06:08;11.47;;;6.43;;
10550;SDS011;5324;50.684;3.862;2024-03-17T05:08:34;12.60;;;7.23;;
10550;SDS011;5324;50.684;3.862;2024-03-17T05:11:01;9.27;;;5.90;;
10550;SDS011;5324;50.684;3.862;2024-03-17T05:13:34;11.33;;;6.30;;
10550;SDS011;5324;50.684;3.862;2024-03-17T05:16:00;13.87;;;6.17;;
10550;SDS011;5324;50.684;3.862;2024-03-17T05:18:26;10.93;;;6.20;;
10550;SDS011;5324;50.684;3.862;2024-03-17T05:20:59;11.90;;;6.50;;
10550;SDS011;5324;50.684;3.862;2024-03-17T05:23:26;13.80;;;7.23;;
10550;SDS011;5324;50.684;3.862;2024-03-17T05:25:53;11.40;;;6.27;;
10550;SDS011;5324;50.684;3.862;2024-03-17T05:28:19;10.03;;;6.43;;
10550;SDS011;5324;50.684;3.862;2024-03-17T05:30:45;12.10;;;6.37;;
10550;SDS011;5324;50.684;3.862;2024-03-17T05:33:11;12.40;;;6.47;;
10550;SDS011;5324;50.684;3.862;2024-03-17T05:35:37;13.60;;;6.73;;
10550;SDS011;5324;50.684;3.862;2024-03-17T05:38:03;9.43;;;5.83;;
10550;SDS011;5324;50.684;3.862;2024-03-17T05:40:29;10.77;;;6.07;;
10550;SDS011;5324;50.684;3.862;2024-03-17T05:42:56;9.90;;;5.50;;
10550;SDS011;5324;50.684;3.862;2024-03-17T05:45:22;8.97;;;5.63;;
10550;SDS011;5324;50.684;3.862;2024-03-17T05:47:51;8.13;;;5.27;;
10550;SDS011;5324;50.684;3.862;2024-03-17T05:50:17;8.03;;;5.10;;
10550;SDS011;5324;50.684;3.862;2024-03-17T05:52:43;8.20;;;5.07;;
10550;SDS011;5324;50.684;3.862;2024-03-17T05:55:09;8.13;;;5.03;;
10550;SDS011;5324;50.684;3.862;2024-03-17T05:57:36;8.80;;;4.97;;
10550;SDS011;5324;50.684;3.862;2024-03-17T06:00:02;6.57;;;4.80;;
10550;SDS011;5324;50.684;3.862;2024-03-17T06:02:30;8.83;;;4.77;;
10550;SDS011;5324;50.684;3.862;2024-03-17T06:04:56;7.23;;;4.80;;
10550;SDS011;5324;50.684;3.862;2024-03-17T06:07:22;5.73;;;4.63;;
10550;SDS011;5324;50.684;3.862;2024-03-17T06:09:48;6.10;;;4.60;;
10550;SDS011;5324;50.684;3.862;2024-03-17T06:12:14;7.47;;;4.30;;
10550;SDS011;5324;50.684;3.862;2024-03-17T06:14:40;4.43;;;4.03;;
10550;SDS011;5324;50.684;3.862;2024-03-17T06:17:06;8.07;;;4.83;;
10550;SDS011;5324;50.684;3.862;2024-03-17T06:19:33;5.50;;;4.20;;
10550;SDS011;5324;50.684;3.862;2024-03-17T06:21:59;8.20;;;4.57;;
10550;SDS011;5324;50.684;3.862;2024-03-17T06:24:25;6.93;;;4.67;;
10550;SDS011;5324;50.684;3.862;2024-03-17T06:26:52;6.13;;;4.27;;
10550;SDS011;5324;50.684;3.862;2024-03-17T06:29:18;5.47;;;4.33;;
10550;SDS011;5324;50.684;3.862;2024-03-17T06:31:45;4.77;;;4.00;;
10550;SDS011;5324;50.684;3.862;2024-03-17T06:34:12;4.43;;;3.93;;
10550;SDS011;5324;50.684;3.862;2024-03-17T06:36:40;5.27;;;3.67;;
10550;SDS011;5324;50.684;3.862;2024-03-17T06:39:07;5.10;;;4.17;;
10550;SDS011;5324;50.684;3.862;2024-03-17T06:41:33;5.87;;;4.10;;
10550;SDS011;5324;50.684;3.862;2024-03-17T06:43:59;6.27;;;4.43;;
10550;SDS011;5324;50.684;3.862;2024-03-17T06:46:25;6.47;;;4.73;;
10550;SDS011;5324;50.684;3.862;2024-03-17T06:48:51;5.17;;;4.30;;
10550;SDS011;5324;50.684;3.862;2024-03-17T06:51:18;8.73;;;4.10;;
10550;SDS011;5324;50.684;3.862;2024-03-17T06:53:44;7.00;;;4.57;;
10550;SDS011;5324;50.684;3.862;2024-03-17T06:56:10;5.57;;;4.00;;
10550;SDS011;5324;50.684;3.862;2024-03-17T06:58:36;9.27;;;4.80;;
10550;SDS011;5324;50.684;3.862;2024-03-17T07:01:02;6.17;;;4.80;;
10550;SDS011;5324;50.684;3.862;2024-03-17T07:03:29;7.30;;;4.80;;
10550;SDS011;5324;50.684;3.862;2024-03-17T07:05:56;7.20;;;4.70;;
10550;SDS011;5324;50.684;3.862;2024-03-17T07:08:23;7.87;;;4.17;;
10550;SDS011;5324;50.684;3.862;2024-03-17T07:11:02;6.10;;;4.77;;
10550;SDS011;5324;50.684;3.862;2024-03-17T07:13:30;6.77;;;4.33;;
10550;SDS011;5324;50.684;3.862;2024-03-17T07:15:58;4.90;;;4.00;;
10550;SDS011;5324;50.684;3.862;2024-03-17T07:18:25;5.80;;;4.37;;
10550;SDS011;5324;50.684;3.862;2024-03-17T07:20:52;6.53;;;4.43;;
10550;SDS011;5324;50.684;3.862;2024-03-17T07:23:18;5.17;;;4.40;;
10550;SDS011;5324;50.684;3.862;2024-03-17T07:25:57;7.67;;;4.37;;
10550;SDS011;5324;50.684;3.862;2024-03-17T07:28:24;4.93;;;4.37;;
10550;SDS011;5324;50.684;3.862;2024-03-17T07:33:16;4.97;;;3.50;;
10550;SDS011;5324;50.684;3.862;2024-03-17T07:38:14;5.10;;;3.70;;
10550;SDS011;5324;50.684;3.862;2024-03-17T07:40:41;7.57;;;3.90;;
10550;SDS011;5324;50.684;3.862;2024-03-17T07:43:07;4.40;;;3.43;;
10550;SDS011;5324;50.684;3.862;2024-03-17T07:45:33;5.10;;;3.80;;
10550;SDS011;5324;50.684;3.862;2024-03-17T07:47:59;5.13;;;3.97;;
10550;SDS011;5324;50.684;3.862;2024-03-17T07:50:25;4.13;;;3.43;;
10550;SDS011;5324;50.684;3.862;2024-03-17T07:52:52;4.60;;;4.17;;
10550;SDS011;5324;50.684;3.862;2024-03-17T07:55:18;4.03;;;3.13;;
10550;SDS011;5324;50.684;3.862;2024-03-17T07:57:44;4.27;;;3.53;;
10550;SDS011;5324;50.684;3.862;2024-03-17T08:00:10;4.10;;;3.70;;
10550;SDS011;5324;50.684;3.862;2024-03-17T08:02:45;5.57;;;4.00;;
10550;SDS011;5324;50.684;3.862;2024-03-17T08:05:11;5.90;;;3.93;;
10550;SDS011;5324;50.684;3.862;2024-03-17T08:07:38;4.27;;;3.60;;
10550;SDS011;5324;50.684;3.862;2024-03-17T08:10:04;5.10;;;3.77;;
10550;SDS011;5324;50.684;3.862;2024-03-17T08:12:30;6.43;;;4.03;;
10550;SDS011;5324;50.684;3.862;2024-03-17T08:14:56;4.00;;;3.40;;
10550;SDS011;5324;50.684;3.862;2024-03-17T08:17:24;4.60;;;4.00;;
10550;SDS011;5324;50.684;3.862;2024-03-17T08:19:50;6.70;;;3.53;;
10550;SDS011;5324;50.684;3.862;2024-03-17T08:22:16;7.00;;;4.17;;
10550;SDS011;5324;50.684;3.862;2024-03-17T08:24:42;5.63;;;3.97;;
10550;SDS011;5324;50.684;3.862;2024-03-17T08:27:08;4.80;;;4.20;;
10550;SDS011;5324;50.684;3.862;2024-03-17T08:29:34;6.67;;;3.90;;
10550;SDS011;5324;50.684;3.862;2024-03-17T08:32:00;6.67;;;4.57;;
10550;SDS011;5324;50.684;3.862;2024-03-17T08:34:26;6.23;;;4.10;;
10550;SDS011;5324;50.684;3.862;2024-03-17T08:36:52;5.40;;;4.40;;
10550;SDS011;5324;50.684;3.862;2024-03-17T08:39:18;6.10;;;4.47;;
10550;SDS011;5324;50.684;3.862;2024-03-17T08:41:44;5.43;;;4.40;;
10550;SDS011;5324;50.684;3.862;2024-03-17T08:44:11;5.53;;;4.93;;
10550;SDS011;5324;50.684;3.862;2024-03-17T08:46:37;6.13;;;4.60;;
10550;SDS011;5324;50.684;3.862;2024-03-17T08:49:03;5.30;;;4.67;;
10550;SDS011;5324;50.684;3.862;2024-03-17T08:51:30;6.00;;;4.73;;
10550;SDS011;5324;50.684;3.862;2024-03-17T08:53:57;9.13;;;4.50;;
10550;SDS011;5324;50.684;3.862;2024-03-17T08:56:23;7.03;;;4.77;;
10550;SDS011;5324;50.684;3.862;2024-03-17T08:58:49;4.67;;;4.20;;
10550;SDS011;5324;50.684;3.862;2024-03-17T09:01:15;6.90;;;4.20;;
10550;SDS011;5324;50.684;3.862;2024-03-17T09:03:41;4.50;;;4.10;;
10550;SDS011;5324;50.684;3.862;2024-03-17T09:06:15;4.93;;;4.33;;
10550;SDS011;5324;50.684;3.862;2024-03-17T09:08:41;6.73;;;4.20;;
10550;SDS011;5324;50.684;3.862;2024-03-17T09:11:13;5.90;;;4.10;;
10550;SDS011;5324;50.684;3.862;2024-03-17T09:13:40;5.20;;;4.33;;
10550;SDS011;5324;50.684;3.862;2024-03-17T09:16:06;7.63;;;4.23;;
10550;SDS011;5324;50.684;3.862;2024-03-17T09:18:36;7.73;;;4.57;;
10550;SDS011;5324;50.684;3.862;2024-03-17T09:21:06;6.17;;;4.27;;
10550;SDS011;5324;50.684;3.862;2024-03-17T09:23:35;6.80;;;4.50;;
10550;SDS011;5324;50.684;3.862;2024-03-17T09:26:05;5.23;;;3.60;;
10550;SDS011;5324;50.684;3.862;2024-03-17T09:28:33;4.97;;;4.03;;
10550;SDS011;5324;50.684;3.862;2024-03-17T09:30:59;4.93;;;4.10;;
10550;SDS011;5324;50.684;3.862;2024-03-17T09:33:27;5.60;;;4.43;;
10550;SDS011;5324;50.684;3.862;2024-03-17T09:35:58;5.60;;;4.70;;
10550;SDS011;5324;50.684;3.862;2024-03-17T09:38:25;5.73;;;4.10;;
10550;SDS011;5324;50.684;3.862;2024-03-17T09:40:51;5.50;;;4.03;;
10550;SDS011;5324;50.684;3.862;2024-03-17T09:43:21;6.73;;;4.47;;
10550;SDS011;5324;50.684;3.862;2024-03-17T09:45:48;6.37;;;4.43;;
10550;SDS011;5324;50.684;3.862;2024-03-17T09:48:15;4.73;;;3.23;;
10550;SDS011;5324;50.684;3.862;2024-03-17T09:50:43;3.73;;;3.43;;
10550;SDS011;5324;50.684;3.862;2024-03-17T09:53:11;5.30;;;4.00;;
10550;SDS011;5324;50.684;3.862;2024-03-17T09:55:40;4.37;;;3.50;;
10550;SDS011;5324;50.684;3.862;2024-03-17T09:58:09;5.83;;;3.53;;
10550;SDS011;5324;50.684;3.862;2024-03-17T10:00:41;6.93;;;4.30;;
10550;SDS011;5324;50.684;3.862;2024-03-17T10:03:07;5.27;;;4.03;;
10550;SDS011;5324;50.684;3.862;2024-03-17T10:05:33;5.53;;;4.10;;
10550;SDS011;5324;50.684;3.862;2024-03-17T10:07:59;4.23;;;3.83;;
10550;SDS011;5324;50.684;3.862;2024-03-17T10:10:25;6.87;;;3.40;;
10550;SDS011;5324;50.684;3.862;2024-03-17T10:12:52;4.40;;;3.73;;
10550;SDS011;5324;50.684;3.862;2024-03-17T10:15:18;4.27;;;3.67;;
10550;SDS011;5324;50.684;3.862;2024-03-17T10:17:48;6.30;;;4.03;;
10550;SDS011;5324;50.684;3.862;2024-03-17T10:25:25;5.33;;;3.50;;
10550;SDS011;5324;50.684;3.862;2024-03-17T10:27:52;4.47;;;3.27;;
10550;SDS011;5324;50.684;3.862;2024-03-17T10:30:19;4.73;;;3.63;;
10550;SDS011;5324;50.684;3.862;2024-03-17T10:32:48;3.80;;;3.47;;
10550;SDS011;5324;50.684;3.862;2024-03-17T10:35:51;4.63;;;2.80;;
10550;SDS011;5324;50.684;3.862;2024-03-17T10:38:10;4.83;;;3.00;;
10550;SDS011;5324;50.684;3.862;2024-03-17T10:40:38;4.77;;;3.10;;
10550;SDS011;5324;50.684;3.862;2024-03-17T10:43:05;3.37;;;3.07;;
10550;SDS011;5324;50.684;3.862;2024-03-17T10:45:32;3.97;;;2.70;;
10550;SDS011;5324;50.684;3.862;2024-03-17T10:48:03;4.33;;;2.70;;
10550;SDS011;5324;50.684;3.862;2024-03-17T10:50:34;3.53;;;2.73;;
10550;SDS011;5324;50.684;3.862;2024-03-17T10:53:02;5.30;;;2.43;;
10550;SDS011;5324;50.684;3.862;2024-03-17T10:55:29;5.37;;;2.80;;
10550;SDS011;5324;50.684;3.862;2024-03-17T10:57:57;3.63;;;2.50;;
10550;SDS011;5324;50.684;3.862;2024-03-17T11:00:25;3.47;;;2.60;;
10550;SDS011;5324;50.684;3.862;2024-03-17T11:02:54;4.17;;;2.63;;
10550;SDS011;5324;50.684;3.862;2024-03-17T11:05:21;3.60;;;2.83;;
10550;SDS011;5324;50.684;3.862;2024-03-17T11:07:48;5.33;;;2.60;;
10550;SDS011;5324;50.684;3.862;2024-03-17T11:10:16;4.50;;;2.70;;
10550;SDS011;5324;50.684;3.862;2024-03-17T11:12:43;3.87;;;2.47;;
10550;SDS011;5324;50.684;3.862;2024-03-17T11:17:45;3.67;;;2.20;;
10550;SDS011;5324;50.684;3.862;2024-03-17T11:20:15;3.93;;;2.70;;
10550;SDS011;5324;50.684;3.862;2024-03-17T11:22:41;4.00;;;2.47;;
10550;SDS011;5324;50.684;3.862;2024-03-17T11:25:53;3.53;;;2.60;;
10550;SDS011;5324;50.684;3.862;2024-03-17T11:28:00;2.60;;;2.17;;
10550;SDS011;5324;50.684;3.862;2024-03-17T11:38:50;2.93;;;2.20;;
10550;SDS011;5324;50.684;3.862;2024-03-17T11:46:57;4.50;;;2.33;;
10550;SDS011;5324;50.684;3.862;2024-03-17T11:49:28;4.50;;;2.33;;
10550;SDS011;5324;50.684;3.862;2024-03-17T11:51:55;3.90;;;2.60;;
10550;SDS011;5324;50.684;3.862;2024-03-17T11:54:25;5.63;;;2.20;;
10550;SDS011;5324;50.684;3.862;2024-03-17T11:56:55;4.40;;;2.53;;
10550;SDS011;5324;50.684;3.862;2024-03-17T11:59:22;3.67;;;1.90;;
10550;SDS011;5324;50.684;3.862;2024-03-17T12:01:51;3.50;;;1.88;;
10550;SDS011;5324;50.684;3.862;2024-03-17T12:04:18;5.55;;;2.13;;
10550;SDS011;5324;50.684;3.862;2024-03-17T12:06:45;4.97;;;2.20;;
10550;SDS011;5324;50.684;3.862;2024-03-17T12:11:37;2.60;;;1.97;;
10550;SDS011;5324;50.684;3.862;2024-03-17T12:14:16;3.67;;;1.70;;
10550;SDS011;5324;50.684;3.862;2024-03-17T12:16:50;4.47;;;2.03;;
10550;SDS011;5324;50.684;3.862;2024-03-17T12:19:17;4.03;;;1.90;;
10550;SDS011;5324;50.684;3.862;2024-03-17T12:21:44;3.85;;;2.33;;
10550;SDS011;5324;50.684;3.862;2024-03-17T12:24:14;3.05;;;2.10;;
10550;SDS011;5324;50.684;3.862;2024-03-17T12:26:41;3.42;;;2.20;;
10550;SDS011;5324;50.684;3.862;2024-03-17T12:31:50;3.53;;;2.22;;
10550;SDS011;5324;50.684;3.862;2024-03-17T12:34:17;4.93;;;1.70;;
10550;SDS011;5324;50.684;3.862;2024-03-17T12:36:44;2.03;;;1.53;;
10550;SDS011;5324;50.684;3.862;2024-03-17T12:39:10;4.07;;;1.80;;
10550;SDS011;5324;50.684;3.862;2024-03-17T12:41:36;2.83;;;1.70;;
10550;SDS011;5324;50.684;3.862;2024-03-17T12:44:03;3.90;;;1.80;;
10550;SDS011;5324;50.684;3.862;2024-03-17T12:46:30;3.07;;;1.80;;
10550;SDS011;5324;50.684;3.862;2024-03-17T12:49:00;3.77;;;1.60;;
10550;SDS011;5324;50.684;3.862;2024-03-17T12:51:26;3.73;;;2.07;;
10550;SDS011;5324;50.684;3.862;2024-03-17T12:54:11;3.10;;;1.77;;
10550;SDS011;5324;50.684;3.862;2024-03-17T12:56:37;2.67;;;1.60;;
10550;SDS011;5324;50.684;3.862;2024-03-17T12:59:22;3.97;;;1.93;;
10550;SDS011;5324;50.684;3.862;2024-03-17T13:02:10;4.83;;;1.97;;
10550;SDS011;5324;50.684;3.862;2024-03-17T13:04:40;4.67;;;1.77;;
10550;SDS011;5324;50.684;3.862;2024-03-17T13:07:10;4.20;;;2.00;;
10550;SDS011;5324;50.684;3.862;2024-03-17T13:09:36;3.83;;;1.67;;
10550;SDS011;5324;50.684;3.862;2024-03-17T13:12:06;6.37;;;2.00;;
10550;SDS011;5324;50.684;3.862;2024-03-17T13:14:38;3.47;;;1.83;;
10550;SDS011;5324;50.684;3.862;2024-03-17T13:17:04;5.57;;;1.63;;
10550;SDS011;5324;50.684;3.862;2024-03-17T13:19:30;3.17;;;1.47;;
10550;SDS011;5324;50.684;3.862;2024-03-17T13:21:56;6.63;;;1.43;;
10550;SDS011;5324;50.684;3.862;2024-03-17T13:24:22;2.63;;;1.20;;
10550;SDS011;5324;50.684;3.862;2024-03-17T13:26:48;3.43;;;1.73;;
10550;SDS011;5324;50.684;3.862;2024-03-17T13:29:15;2.80;;;1.70;;
10550;SDS011;5324;50.684;3.862;2024-03-17T13:31:41;3.17;;;1.60;;
10550;SDS011;5324;50.684;3.862;2024-03-17T13:34:07;2.97;;;1.80;;
10550;SDS011;5324;50.684;3.862;2024-03-17T13:36:33;3.73;;;1.63;;
10550;SDS011;5324;50.684;3.862;2024-03-17T13:39:00;4.00;;;1.70;;
10550;SDS011;5324;50.684;3.862;2024-03-17T13:41:26;2.23;;;1.60;;
10550;SDS011;5324;50.684;3.862;2024-03-17T13:43:52;4.00;;;1.97;;
10550;SDS011;5324;50.684;3.862;2024-03-17T13:46:22;4.53;;;1.80;;
10550;SDS011;5324;50.684;3.862;2024-03-17T13:48:48;3.30;;;1.83;;
10550;SDS011;5324;50.684;3.862;2024-03-17T13:51:16;4.13;;;1.93;;
10550;SDS011;5324;50.684;3.862;2024-03-17T13:53:42;6.70;;;1.80;;
10550;SDS011;5324;50.684;3.862;2024-03-17T13:56:10;2.60;;;1.67;;
10550;SDS011;5324;50.684;3.862;2024-03-17T13:58:37;3.43;;;1.93;;
10550;SDS011;5324;50.684;3.862;2024-03-17T14:01:04;3.27;;;1.70;;
10550;SDS011;5324;50.684;3.862;2024-03-17T14:03:30;2.80;;;1.57;;
10550;SDS011;5324;50.684;3.862;2024-03-17T14:05:58;2.63;;;1.23;;
10550;SDS011;5324;50.684;3.862;2024-03-17T14:08:24;5.17;;;1.80;;
10550;SDS011;5324;50.684;3.862;2024-03-17T14:10:50;5.10;;;2.00;;
10550;SDS011;5324;50.684;3.862;2024-03-17T14:13:17;3.37;;;1.80;;
10550;SDS011;5324;50.684;3.862;2024-03-17T14:15:43;3.57;;;1.93;;
10550;SDS011;5324;50.684;3.862;2024-03-17T14:18:09;3.87;;;1.60;;
10550;SDS011;5324;50.684;3.862;2024-03-17T14:20:35;2.57;;;1.80;;
10550;SDS011;5324;50.684;3.862;2024-03-17T14:23:02;5.90;;;1.90;;
10550;SDS011;5324;50.684;3.862;2024-03-17T14:25:28;4.27;;;1.93;;
10550;SDS011;5324;50.684;3.862;2024-03-17T14:27:54;4.47;;;1.80;;
10550;SDS011;5324;50.684;3.862;2024-03-17T14:30:20;5.30;;;1.90;;
10550;SDS011;5324;50.684;3.862;2024-03-17T14:32:46;3.53;;;1.70;;
10550;SDS011;5324;50.684;3.862;2024-03-17T14:35:14;2.40;;;1.70;;
10550;SDS011;5324;50.684;3.862;2024-03-17T14:37:40;1.93;;;1.73;;
10550;SDS011;5324;50.684;3.862;2024-03-17T14:40:08;4.50;;;2.20;;
10550;SDS011;5324;50.684;3.862;2024-03-17T14:42:40;2.83;;;1.70;;
10550;SDS011;5324;50.684;3.862;2024-03-17T14:45:06;4.97;;;2.27;;
10550;SDS011;5324;50.684;3.862;2024-03-17T14:47:33;4.33;;;2.43;;
10550;SDS011;5324;50.684;3.862;2024-03-17T14:49:59;3.97;;;2.10;;
10550;SDS011;5324;50.684;3.862;2024-03-17T14:52:25;2.83;;;1.80;;
10550;SDS011;5324;50.684;3.862;2024-03-17T14:54:51;4.20;;;2.00;;
10550;SDS011;5324;50.684;3.862;2024-03-17T14:57:19;8.30;;;2.30;;
10550;SDS011;5324;50.684;3.862;2024-03-17T14:59:46;5.07;;;1.80;;
10550;SDS011;5324;50.684;3.862;2024-03-17T15:02:12;4.47;;;2.10;;
10550;SDS011;5324;50.684;3.862;2024-03-17T15:04:38;9.67;;;2.83;;
10550;SDS011;5324;50.684;3.862;2024-03-17T15:07:04;3.10;;;1.83;;
10550;SDS011;5324;50.684;3.862;2024-03-17T15:09:30;3.30;;;2.07;;
10550;SDS011;5324;50.684;3.862;2024-03-17T15:11:57;5.57;;;2.20;;
10550;SDS011;5324;50.684;3.862;2024-03-17T15:14:23;2.47;;;1.93;;
10550;SDS011;5324;50.684;3.862;2024-03-17T15:16:50;4.30;;;2.13;;
10550;SDS011;5324;50.684;3.862;2024-03-17T15:19:16;3.40;;;2.27;;
10550;SDS011;5324;50.684;3.862;2024-03-17T15:21:42;5.37;;;2.90;;
10550;SDS011;5324;50.684;3.862;2024-03-17T15:24:08;3.60;;;2.47;;
10550;SDS011;5324;50.684;3.862;2024-03-17T15:26:34;4.37;;;2.77;;
10550;SDS011;5324;50.684;3.862;2024-03-17T15:29:00;5.43;;;2.50;;
10550;SDS011;5324;50.684;3.862;2024-03-17T15:48:53;4.90;;;2.60;;
10550;SDS011;5324;50.684;3.862;2024-03-17T15:51:25;4.50;;;2.10;;